createdAt,value
2018-08-27T00:03:33.659Z,1002.9
2018-08-27T00:13:47.673Z,1002.6
2018-08-27T00:24:02.754Z,1002.5
2018-08-27T00:34:18.401Z,1002.4
2018-08-27T00:44:32.437Z,1002.2
2018-08-27T00:54:47.981Z,1002.1
2018-08-27T01:05:02.712Z,1001.9
2018-08-27T01:15:16.866Z,1001.8
2018-08-27T01:25:32.084Z,1001.7
2018-08-27T01:35:46.774Z,1001.7
2018-08-27T01:46:02.066Z,1001.6
2018-08-27T01:56:16.229Z,1001.4
2018-08-27T02:06:31.330Z,1001.4
2018-08-27T02:16:46.840Z,1001.3
2018-08-27T02:27:01.953Z,1001.1
2018-08-27T02:37:16.436Z,1001.1
2018-08-27T02:47:31.029Z,1001
2018-08-27T02:57:44.766Z,1001
2018-08-27T03:07:59.157Z,1000.9
2018-08-27T03:18:14.047Z,1000.9
2018-08-27T03:28:29.229Z,1000.8
2018-08-27T03:38:44.785Z,1000.8
2018-08-27T03:48:58.576Z,1000.7
2018-08-27T03:59:12.804Z,1000.6
2018-08-27T04:09:26.967Z,1000.6
2018-08-27T04:19:42.505Z,1000.8
2018-08-27T04:29:56.826Z,1000.7
2018-08-27T04:40:10.767Z,1000.7
2018-08-27T04:50:24.639Z,1000.8
2018-08-27T05:00:38.961Z,1000.9
2018-08-27T05:10:53.401Z,1000.9
2018-08-27T05:21:09.104Z,1001
2018-08-27T05:31:24.383Z,1001
2018-08-27T05:41:39.879Z,1001.1
2018-08-27T05:51:55.495Z,1001.1
2018-08-27T06:02:10.927Z,1001.1
2018-08-27T06:12:25.474Z,1001.3
2018-08-27T06:22:40.624Z,1001.4
2018-08-27T06:32:56.165Z,1001.4
2018-08-27T06:43:11.722Z,1001.4
2018-08-27T06:53:25.957Z,1001.6
2018-08-27T07:03:41.400Z,1001.6
2018-08-27T07:13:55.475Z,1001.6
2018-08-27T07:24:09.817Z,1001.6
2018-08-27T07:34:26.136Z,1001.7
2018-08-27T07:44:39.485Z,1001.8
2018-08-27T07:54:55.253Z,1001.9
2018-08-27T08:05:09.052Z,1001.9
2018-08-27T08:15:22.916Z,1002
2018-08-27T08:25:37.288Z,1002.1
2018-08-27T08:35:52.733Z,1002.3
2018-08-27T08:46:08.072Z,1002.3
2018-08-27T08:56:23.543Z,1002.5
2018-08-27T09:06:38.600Z,1002.5
2018-08-27T09:16:52.526Z,1002.6
2018-08-27T09:27:08.093Z,1002.5
2018-08-27T09:37:21.972Z,1002.5
2018-08-27T09:47:37.692Z,1002.6
2018-08-27T09:57:53.224Z,1002.6
2018-08-27T10:08:08.582Z,1002.8
2018-08-27T10:18:24.354Z,1003
2018-08-27T10:28:38.479Z,1003
2018-08-27T10:38:53.276Z,1002.8
2018-08-27T10:49:07.925Z,1003.1
2018-08-27T10:59:21.687Z,1003.2
2018-08-27T11:09:36.598Z,1003.1
2018-08-27T11:19:51.241Z,1003.3
2018-08-27T11:30:06.336Z,1003.2
2018-08-27T11:40:22.287Z,1003
2018-08-27T11:50:37.567Z,1002.6
2018-08-27T12:00:52.032Z,1003
2018-08-27T12:11:06.464Z,1003.3
2018-08-27T12:21:21.306Z,1003.5
2018-08-27T12:31:36.421Z,1003.5
2018-08-27T12:41:52.334Z,1003.6
2018-08-27T12:52:07.295Z,1003.9
2018-08-27T13:02:22.202Z,1003.4
2018-08-27T13:12:37.475Z,1004.1
2018-08-27T13:22:52.024Z,1004
2018-08-27T13:33:07.762Z,1004.3
2018-08-27T13:43:22.595Z,1004.9
2018-08-27T13:53:38.403Z,1005.1
2018-08-27T14:03:52.950Z,1005
2018-08-27T14:14:07.420Z,1004.8
2018-08-27T14:24:22.956Z,1005.3
2018-08-27T14:34:36.973Z,1005.6
2018-08-27T14:44:51.854Z,1005.5
2018-08-27T14:55:07.408Z,1005.5
2018-08-27T15:05:22.281Z,1005.7
2018-08-27T15:15:37.280Z,1005.7
2018-08-27T15:25:52.319Z,1005.8
2018-08-27T15:36:07.504Z,1006.1
2018-08-27T15:46:22.792Z,1006.1
2018-08-27T15:56:37.580Z,1006.3
2018-08-27T16:06:52.494Z,1006.3
2018-08-27T16:17:07.396Z,1006.5
2018-08-27T16:27:22.409Z,1006.7
2018-08-27T16:37:36.652Z,1006.8
2018-08-27T16:47:50.469Z,1006.9
2018-08-27T16:58:05.374Z,1006.9
2018-08-27T17:08:21.065Z,1007
2018-08-27T17:18:36.545Z,1007.1
2018-08-27T17:28:52.228Z,1007.1
2018-08-27T17:39:07.194Z,1007.1
2018-08-27T17:49:21.183Z,1007.3
2018-08-27T17:59:35.101Z,1007.4
2018-08-27T18:09:49.232Z,1007.6
2018-08-27T18:20:04.976Z,1007.7
2018-08-27T18:30:19.724Z,1008
2018-08-27T18:40:34.628Z,1008
2018-08-27T18:50:48.590Z,1008.2
2018-08-27T19:01:03.448Z,1008.4
2018-08-27T19:11:17.768Z,1008.5
2018-08-27T19:21:33.327Z,1008.6
2018-08-27T19:31:48.011Z,1008.7
2018-08-27T19:42:03.437Z,1008.9
2018-08-27T19:52:17.874Z,1008.9
2018-08-27T20:02:32.639Z,1009
2018-08-27T20:12:46.583Z,1009.2
2018-08-27T20:23:01.888Z,1009.2
2018-08-27T20:33:16.798Z,1009.3
2018-08-27T20:43:32.000Z,1009.3
2018-08-27T20:53:46.325Z,1009.5
2018-08-27T21:04:00.749Z,1009.6
2018-08-27T21:14:16.021Z,1009.7
2018-08-27T21:24:29.833Z,1009.9
2018-08-27T21:34:43.937Z,1009.8
2018-08-27T21:44:57.927Z,1010
2018-08-27T21:55:13.528Z,1009.9
2018-08-27T22:05:29.066Z,1010
2018-08-27T22:15:43.815Z,1010.1
2018-08-27T22:25:58.570Z,1010.1
2018-08-27T22:36:13.793Z,1010.1
2018-08-27T22:46:27.838Z,1010.2
2018-08-27T22:56:43.233Z,1010.3
2018-08-27T23:06:57.862Z,1010.4
2018-08-27T23:17:13.531Z,1010.5
2018-08-27T23:27:27.871Z,1010.5
2018-08-27T23:37:42.843Z,1010.6
2018-08-27T23:47:58.535Z,1010.6
2018-08-27T23:58:14.018Z,1010.7
